sensor_id;sensor_type;location;lat;lon;timestamp;pressure;altitude;pressure_sealevel;temperature
70969;BMP280;58630;43.022;25.100;2022-09-12T00:01:28;99006.75;;;24.51
70969;BMP280;58630;43.022;25.100;2022-09-12T00:03:56;99009.41;;;24.51
70969;BMP280;58630;43.022;25.100;2022-09-12T00:06:26;99017.31;;;24.48
70969;BMP280;58630;43.022;25.100;2022-09-12T00:08:56;99012.41;;;24.46
70969;BMP280;58630;43.022;25.100;2022-09-12T00:11:22;99017.28;;;24.44
70969;BMP280;58630;43.022;25.100;2022-09-12T00:13:47;99024.50;;;24.44
70969;BMP280;58630;43.022;25.100;2022-09-12T00:16:23;99028.59;;;24.38
70969;BMP280;58630;43.022;25.100;2022-09-12T00:18:48;99030.91;;;24.39
70969;BMP280;58630;43.022;25.100;2022-09-12T00:21:14;99025.56;;;24.36
70969;BMP280;58630;43.022;25.100;2022-09-12T00:23:40;99017.16;;;24.34
70969;BMP280;58630;43.022;25.100;2022-09-12T00:26:06;99018.28;;;24.33
70969;BMP280;58630;43.022;25.100;2022-09-12T00:28:32;99016.34;;;24.30
70969;BMP280;58630;43.022;25.100;2022-09-12T00:30:57;99014.84;;;24.29
70969;BMP280;58630;43.022;25.100;2022-09-12T00:33:23;99017.06;;;24.27
70969;BMP280;58630;43.022;25.100;2022-09-12T00:35:51;99010.94;;;24.23
70969;BMP280;58630;43.022;25.100;2022-09-12T00:38:19;99010.56;;;24.21
70969;BMP280;58630;43.022;25.100;2022-09-12T00:40:45;99003.31;;;24.18
70969;BMP280;58630;43.022;25.100;2022-09-12T00:43:31;99004.03;;;24.15
70969;BMP280;58630;43.022;25.100;2022-09-12T00:45:57;98992.66;;;24.15
70969;BMP280;58630;43.022;25.100;2022-09-12T00:48:26;98999.91;;;24.18
70969;BMP280;58630;43.022;25.100;2022-09-12T00:50:53;98993.41;;;24.15
70969;BMP280;58630;43.022;25.100;2022-09-12T00:53:19;98990.75;;;24.15
70969;BMP280;58630;43.022;25.100;2022-09-12T00:55:45;98993.00;;;24.13
70969;BMP280;58630;43.022;25.100;2022-09-12T00:58:33;98998.72;;;24.15
70969;BMP280;58630;43.022;25.100;2022-09-12T01:00:59;99002.13;;;24.12
70969;BMP280;58630;43.022;25.100;2022-09-12T01:03:25;99005.91;;;24.11
70969;BMP280;58630;43.022;25.100;2022-09-12T01:08:25;98997.88;;;24.08
70969;BMP280;58630;43.022;25.100;2022-09-12T01:10:51;98994.47;;;24.07
70969;BMP280;58630;43.022;25.100;2022-09-12T01:13:16;98999.38;;;24.05
70969;BMP280;58630;43.022;25.100;2022-09-12T01:15:41;98991.00;;;24.03
70969;BMP280;58630;43.022;25.100;2022-09-12T01:18:13;99009.16;;;24.01
70969;BMP280;58630;43.022;25.100;2022-09-12T01:20:57;99010.28;;;24.00
70969;BMP280;58630;43.022;25.100;2022-09-12T01:31:43;99008.31;;;23.94
70969;BMP280;58630;43.022;25.100;2022-09-12T01:47:09;98992.63;;;23.85
70969;BMP280;58630;43.022;25.100;2022-09-12T01:49:56;98987.31;;;23.85
70969;BMP280;58630;43.022;25.100;2022-09-12T01:55:03;98986.53;;;23.81
70969;BMP280;58630;43.022;25.100;2022-09-12T01:57:32;98986.88;;;23.80
70969;BMP280;58630;43.022;25.100;2022-09-12T02:00:02;98983.06;;;23.77
70969;BMP280;58630;43.022;25.100;2022-09-12T02:02:30;98988.00;;;23.79
70969;BMP280;58630;43.022;25.100;2022-09-12T02:04:59;98990.97;;;23.74
70969;BMP280;58630;43.022;25.100;2022-09-12T02:07:29;98998.91;;;23.74
70969;BMP280;58630;43.022;25.100;2022-09-12T02:09:58;98996.97;;;23.71
70969;BMP280;58630;43.022;25.100;2022-09-12T02:12:28;98998.09;;;23.70
70969;BMP280;58630;43.022;25.100;2022-09-12T02:14:56;98995.81;;;23.69
70969;BMP280;58630;43.022;25.100;2022-09-12T02:17:23;98992.75;;;23.67
70969;BMP280;58630;43.022;25.100;2022-09-12T02:22:16;98983.63;;;23.64
70969;BMP280;58630;43.022;25.100;2022-09-12T02:24:42;98986.97;;;23.61
70969;BMP280;58630;43.022;25.100;2022-09-12T02:27:10;98977.50;;;23.60
70969;BMP280;58630;43.022;25.100;2022-09-12T02:29:37;98981.28;;;23.59
70969;BMP280;58630;43.022;25.100;2022-09-12T02:32:04;98981.22;;;23.56
70969;BMP280;58630;43.022;25.100;2022-09-12T02:39:26;98981.91;;;23.53
70969;BMP280;58630;43.022;25.100;2022-09-12T02:41:52;98992.13;;;23.51
70969;BMP280;58630;43.022;25.100;2022-09-12T02:44:19;98987.19;;;23.49
70969;BMP280;58630;43.022;25.100;2022-09-12T02:46:48;98993.97;;;23.47
70969;BMP280;58630;43.022;25.100;2022-09-12T02:49:15;98995.09;;;23.46
70969;BMP280;58630;43.022;25.100;2022-09-12T02:51:40;98993.56;;;23.45
70969;BMP280;58630;43.022;25.100;2022-09-12T02:54:05;98996.22;;;23.45
70969;BMP280;58630;43.022;25.100;2022-09-12T02:56:31;98990.50;;;23.43
70969;BMP280;58630;43.022;25.100;2022-09-12T02:59:06;98992.72;;;23.41
70969;BMP280;58630;43.022;25.100;2022-09-12T03:06:37;99004.06;;;23.38
70969;BMP280;58630;43.022;25.100;2022-09-12T03:09:12;99001.72;;;23.36
70969;BMP280;58630;43.022;25.100;2022-09-12T03:24:29;99000.13;;;23.28
70969;BMP280;58630;43.022;25.100;2022-09-12T03:29:28;98990.56;;;23.24
70969;BMP280;58630;43.022;25.100;2022-09-12T03:31:55;99003.44;;;23.26
70969;BMP280;58630;43.022;25.100;2022-09-12T03:34:21;99002.25;;;23.23
70969;BMP280;58630;43.022;25.100;2022-09-12T03:36:47;99008.69;;;23.22
70969;BMP280;58630;43.022;25.100;2022-09-12T03:39:12;99002.97;;;23.20
70969;BMP280;58630;43.022;25.100;2022-09-12T03:41:37;99000.31;;;23.20
70969;BMP280;58630;43.022;25.100;2022-09-12T03:44:03;99002.22;;;23.20
70969;BMP280;58630;43.022;25.100;2022-09-12T03:46:28;99001.38;;;23.16
70969;BMP280;58630;43.022;25.100;2022-09-12T03:48:53;98998.75;;;23.16
70969;BMP280;58630;43.022;25.100;2022-09-12T03:51:18;99004.81;;;23.16
70969;BMP280;58630;43.022;25.100;2022-09-12T03:53:44;99008.59;;;23.15
70969;BMP280;58630;43.022;25.100;2022-09-12T03:56:11;99003.28;;;23.15
70969;BMP280;58630;43.022;25.100;2022-09-12T03:58:36;99009.28;;;23.12
70969;BMP280;58630;43.022;25.100;2022-09-12T04:01:05;99009.66;;;23.11
70969;BMP280;58630;43.022;25.100;2022-09-12T04:03:31;99008.88;;;23.10
70969;BMP280;58630;43.022;25.100;2022-09-12T04:05:56;99006.56;;;23.09
70969;BMP280;58630;43.022;25.100;2022-09-12T04:08:21;99016.41;;;23.08
70969;BMP280;58630;43.022;25.100;2022-09-12T04:10:47;99015.28;;;23.09
70969;BMP280;58630;43.022;25.100;2022-09-12T04:13:12;99017.88;;;23.06
70969;BMP280;58630;43.022;25.100;2022-09-12T04:15:37;99021.31;;;23.06
70969;BMP280;58630;43.022;25.100;2022-09-12T04:18:02;99018.97;;;23.05
70969;BMP280;58630;43.022;25.100;2022-09-12T04:20:28;99016.72;;;23.03
70969;BMP280;58630;43.022;25.100;2022-09-12T04:22:53;99008.31;;;23.01
70969;BMP280;58630;43.022;25.100;2022-09-12T04:25:18;99012.13;;;23.00
70969;BMP280;58630;43.022;25.100;2022-09-12T04:27:44;99022.72;;;23.00
70969;BMP280;58630;43.022;25.100;2022-09-12T04:30:09;99019.63;;;22.98
70969;BMP280;58630;43.022;25.100;2022-09-12T04:32:34;99031.78;;;22.99
70969;BMP280;58630;43.022;25.100;2022-09-12T04:35:00;99026.03;;;22.97
70969;BMP280;58630;43.022;25.100;2022-09-12T04:37:26;99031.78;;;22.99
70969;BMP280;58630;43.022;25.100;2022-09-12T04:39:51;99017.69;;;22.95
70969;BMP280;58630;43.022;25.100;2022-09-12T04:42:21;99033.59;;;22.95
70969;BMP280;58630;43.022;25.100;2022-09-12T04:44:47;99020.34;;;22.95
70969;BMP280;58630;43.022;25.100;2022-09-12T04:47:12;99024.09;;;22.94
70969;BMP280;58630;43.022;25.100;2022-09-12T04:49:37;99029.41;;;22.94
70969;BMP280;58630;43.022;25.100;2022-09-12T04:52:02;99025.59;;;22.92
70969;BMP280;58630;43.022;25.100;2022-09-12T04:54:28;99025.59;;;22.92
70969;BMP280;58630;43.022;25.100;2022-09-12T04:56:53;99032.75;;;22.91
70969;BMP280;58630;43.022;25.100;2022-09-12T04:59:19;99032.75;;;22.91
70969;BMP280;58630;43.022;25.100;2022-09-12T05:01:45;99041.09;;;22.93
70969;BMP280;58630;43.022;25.100;2022-09-12T05:04:10;99038.44;;;22.93
70969;BMP280;58630;43.022;25.100;2022-09-12T05:06:37;99033.16;;;22.93
70969;BMP280;58630;43.022;25.100;2022-09-12T05:09:03;99040.00;;;22.94
70969;BMP280;58630;43.022;25.100;2022-09-12T05:11:30;99038.13;;;22.95
70969;BMP280;58630;43.022;25.100;2022-09-12T05:13:56;99046.06;;;22.95
70969;BMP280;58630;43.022;25.100;2022-09-12T05:16:21;99047.94;;;22.94
70969;BMP280;58630;43.022;25.100;2022-09-12T05:18:47;99038.44;;;22.93
70969;BMP280;58630;43.022;25.100;2022-09-12T05:21:14;99040.78;;;22.95
70969;BMP280;58630;43.022;25.100;2022-09-12T05:23:40;99049.47;;;22.95
70969;BMP280;58630;43.022;25.100;2022-09-12T05:26:06;99036.25;;;22.95
70969;BMP280;58630;43.022;25.100;2022-09-12T05:28:35;99046.06;;;22.95
70969;BMP280;58630;43.022;25.100;2022-09-12T05:31:05;99042.66;;;22.94
70969;BMP280;58630;43.022;25.100;2022-09-12T05:33:31;99037.03;;;22.96
70969;BMP280;58630;43.022;25.100;2022-09-12T05:35:57;99041.53;;;22.95
70969;BMP280;58630;43.022;25.100;2022-09-12T05:38:23;99040.00;;;22.94
70969;BMP280;58630;43.022;25.100;2022-09-12T05:40:49;99044.19;;;22.95
70969;BMP280;58630;43.022;25.100;2022-09-12T05:43:14;99043.44;;;22.95
70969;BMP280;58630;43.022;25.100;2022-09-12T05:45:40;99038.44;;;22.93
70969;BMP280;58630;43.022;25.100;2022-09-12T05:48:06;99041.09;;;22.93
70969;BMP280;58630;43.022;25.100;2022-09-12T05:50:31;99052.09;;;22.92
70969;BMP280;58630;43.022;25.100;2022-09-12T05:52:57;99052.84;;;22.92
70969;BMP280;58630;43.022;25.100;2022-09-12T05:55:22;99048.31;;;22.93
70969;BMP280;58630;43.022;25.100;2022-09-12T05:57:48;99052.09;;;22.92
70969;BMP280;58630;43.022;25.100;2022-09-12T06:00:13;99045.69;;;22.93
70969;BMP280;58630;43.022;25.100;2022-09-12T06:02:39;99046.00;;;22.91
70969;BMP280;58630;43.022;25.100;2022-09-12T06:05:04;99043.34;;;22.91
70969;BMP280;58630;43.022;25.100;2022-09-12T06:07:30;99048.31;;;22.93
70969;BMP280;58630;43.022;25.100;2022-09-12T06:09:56;99043.03;;;22.93
70969;BMP280;58630;43.022;25.100;2022-09-12T06:12:23;99047.53;;;22.92
70969;BMP280;58630;43.022;25.100;2022-09-12T06:14:50;99036.19;;;22.92
70969;BMP280;58630;43.022;25.100;2022-09-12T06:17:15;99052.13;;;22.95
70969;BMP280;58630;43.022;25.100;2022-09-12T06:19:41;99045.69;;;22.93
70969;BMP280;58630;43.022;25.100;2022-09-12T06:22:06;99060.78;;;22.92
70969;BMP280;58630;43.022;25.100;2022-09-12T06:24:31;99047.53;;;22.92
70969;BMP280;58630;43.022;25.100;2022-09-12T06:26:56;99040.69;;;22.91
70969;BMP280;58630;43.022;25.100;2022-09-12T06:29:22;99046.78;;;22.92
70969;BMP280;58630;43.022;25.100;2022-09-12T06:31:47;99034.63;;;22.91
70969;BMP280;58630;43.022;25.100;2022-09-12T06:34:14;99041.53;;;22.95
70969;BMP280;58630;43.022;25.100;2022-09-12T06:36:44;99048.66;;;22.91
70969;BMP280;58630;43.022;25.100;2022-09-12T06:39:10;99042.25;;;22.92
70969;BMP280;58630;43.022;25.100;2022-09-12T06:41:36;99043.75;;;22.93
70969;BMP280;58630;43.022;25.100;2022-09-12T06:44:01;99041.47;;;22.92
70969;BMP280;58630;43.022;25.100;2022-09-12T06:46:27;99059.25;;;22.91
70969;BMP280;58630;43.022;25.100;2022-09-12T06:48:54;99044.53;;;22.94
70969;BMP280;58630;43.022;25.100;2022-09-12T06:51:20;99039.59;;;22.92
70969;BMP280;58630;43.022;25.100;2022-09-12T06:53:46;99042.25;;;22.92
70969;BMP280;58630;43.022;25.100;2022-09-12T06:56:12;99045.28;;;22.94
70969;BMP280;58630;43.022;25.100;2022-09-12T06:58:37;99037.59;;;22.86
70969;BMP280;58630;43.022;25.100;2022-09-12T07:01:04;99037.66;;;22.89
70969;BMP280;58630;43.022;25.100;2022-09-12T07:03:30;99033.44;;;22.88
70969;BMP280;58630;43.022;25.100;2022-09-12T07:05:56;99046.69;;;22.88
70969;BMP280;58630;43.022;25.100;2022-09-12T07:08:22;99038.44;;;22.93
70969;BMP280;58630;43.022;25.100;2022-09-12T07:10:47;99056.59;;;22.91
70969;BMP280;58630;43.022;25.100;2022-09-12T07:13:13;99036.94;;;22.92
70969;BMP280;58630;43.022;25.100;2022-09-12T07:15:38;99039.16;;;22.90
70969;BMP280;58630;43.022;25.100;2022-09-12T07:18:04;99041.03;;;22.90
70969;BMP280;58630;43.022;25.100;2022-09-12T07:20:29;99036.50;;;22.90
70969;BMP280;58630;43.022;25.100;2022-09-12T07:22:56;99054.72;;;22.92
70969;BMP280;58630;43.022;25.100;2022-09-12T07:25:22;99044.44;;;22.90
70969;BMP280;58630;43.022;25.100;2022-09-12T07:27:47;99046.41;;;22.93
70969;BMP280;58630;43.022;25.100;2022-09-12T07:30:12;99044.13;;;22.92
70969;BMP280;58630;43.022;25.100;2022-09-12T07:32:38;99055.06;;;22.90
70969;BMP280;58630;43.022;25.100;2022-09-12T07:35:03;99040.69;;;22.91
70969;BMP280;58630;43.022;25.100;2022-09-12T07:37:29;99035.00;;;22.89
70969;BMP280;58630;43.022;25.100;2022-09-12T07:39:55;99031.28;;;22.94
70969;BMP280;58630;43.022;25.100;2022-09-12T07:42:21;99046.78;;;22.92
70969;BMP280;58630;43.022;25.100;2022-09-12T07:44:46;99040.69;;;22.91
70969;BMP280;58630;43.022;25.100;2022-09-12T07:47:12;99049.03;;;22.93
70969;BMP280;58630;43.022;25.100;2022-09-12T07:49:37;99036.44;;;22.87
70969;BMP280;58630;43.022;25.100;2022-09-12T07:52:02;99036.94;;;22.92
70969;BMP280;58630;43.022;25.100;2022-09-12T07:54:28;99037.28;;;22.91
70969;BMP280;58630;43.022;25.100;2022-09-12T07:56:53;99050.19;;;22.92
70969;BMP280;58630;43.022;25.100;2022-09-12T07:59:18;99048.66;;;22.91
70969;BMP280;58630;43.022;25.100;2022-09-12T08:01:44;99035.47;;;22.95
70969;BMP280;58630;43.022;25.100;2022-09-12T08:04:09;99023.59;;;22.85
70969;BMP280;58630;43.022;25.100;2022-09-12T08:06:35;99036.09;;;22.88
70969;BMP280;58630;43.022;25.100;2022-09-12T08:09:01;99030.09;;;22.91
70969;BMP280;58630;43.022;25.100;2022-09-12T08:11:27;99040.00;;;22.94
70969;BMP280;58630;43.022;25.100;2022-09-12T08:13:53;99040.44;;;22.96
70969;BMP280;58630;43.022;25.100;2022-09-12T08:16:20;99038.88;;;22.95
70969;BMP280;58630;43.022;25.100;2022-09-12T08:18:46;99030.63;;;22.97
70969;BMP280;58630;43.022;25.100;2022-09-12T08:21:12;99048.38;;;22.96
70969;BMP280;58630;43.022;25.100;2022-09-12T08:23:38;99033.31;;;23.00
70969;BMP280;58630;43.022;25.100;2022-09-12T08:26:03;99033.16;;;22.93
70969;BMP280;58630;43.022;25.100;2022-09-12T08:28:29;99016.56;;;22.96
70969;BMP280;58630;43.022;25.100;2022-09-12T08:33:27;99007.94;;;22.99
70969;BMP280;58630;43.022;25.100;2022-09-12T08:36:04;99005.28;;;22.99
70969;BMP280;58630;43.022;25.100;2022-09-12T08:38:29;99021.97;;;23.00
70969;BMP280;58630;43.022;25.100;2022-09-12T08:41:03;99002.28;;;23.01
70969;BMP280;58630;43.022;25.100;2022-09-12T08:46:01;98994.75;;;23.03
70969;BMP280;58630;43.022;25.100;2022-09-12T08:48:28;98992.84;;;23.03
70969;BMP280;58630;43.022;25.100;2022-09-12T08:50:55;98996.91;;;22.97
70969;BMP280;58630;43.022;25.100;2022-09-12T08:53:20;98997.31;;;22.99
70969;BMP280;58630;43.022;25.100;2022-09-12T08:55:57;98998.16;;;23.03
70969;BMP280;58630;43.022;25.100;2022-09-12T08:58:23;98988.41;;;23.07
70969;BMP280;58630;43.022;25.100;2022-09-12T09:00:53;98995.22;;;23.08
70969;BMP280;58630;43.022;25.100;2022-09-12T09:08:26;98989.56;;;23.10
70969;BMP280;58630;43.022;25.100;2022-09-12T09:13:26;98991.88;;;23.11
70969;BMP280;58630;43.022;25.100;2022-09-12T09:16:17;99000.22;;;23.13
70969;BMP280;58630;43.022;25.100;2022-09-12T09:18:45;98981.72;;;23.17
70969;BMP280;58630;43.022;25.100;2022-09-12T09:21:26;98987.81;;;23.17
70969;BMP280;58630;43.022;25.100;2022-09-12T09:23:56;98982.50;;;23.17
70969;BMP280;58630;43.022;25.100;2022-09-12T09:26:27;98987.81;;;23.17
70969;BMP280;58630;43.022;25.100;2022-09-12T09:28:54;98981.41;;;23.18
70969;BMP280;58630;43.022;25.100;2022-09-12T09:31:23;98993.50;;;23.19
70969;BMP280;58630;43.022;25.100;2022-09-12T09:33:49;98998.81;;;23.19
70969;BMP280;58630;43.022;25.100;2022-09-12T09:36:22;98976.47;;;23.20
70969;BMP280;58630;43.022;25.100;2022-09-12T09:38:54;98996.97;;;23.23
70969;BMP280;58630;43.022;25.100;2022-09-12T09:41:38;98971.25;;;23.24
70969;BMP280;58630;43.022;25.100;2022-09-12T09:44:06;98980.03;;;23.27
70969;BMP280;58630;43.022;25.100;2022-09-12T09:46:31;98982.28;;;23.29
70969;BMP280;58630;43.022;25.100;2022-09-12T09:48:57;98978.53;;;23.30
70969;BMP280;58630;43.022;25.100;2022-09-12T09:51:25;98969.03;;;23.29
70969;BMP280;58630;43.022;25.100;2022-09-12T09:58:54;98970.56;;;23.30
70969;BMP280;58630;43.022;25.100;2022-09-12T10:01:19;98972.91;;;23.31
70969;BMP280;58630;43.022;25.100;2022-09-12T10:03:49;98969.88;;;23.33
70969;BMP280;58630;43.022;25.100;2022-09-12T10:08:46;98952.50;;;23.35
70969;BMP280;58630;43.022;25.100;2022-09-12T10:13:41;98981.59;;;23.32
70969;BMP280;58630;43.022;25.100;2022-09-12T10:18:56;98986.59;;;23.37
70969;BMP280;58630;43.022;25.100;2022-09-12T10:24:21;98986.19;;;23.35
70969;BMP280;58630;43.022;25.100;2022-09-12T10:27:05;98976.75;;;23.37
70969;BMP280;58630;43.022;25.100;2022-09-12T10:29:32;98971.13;;;23.39
70969;BMP280;58630;43.022;25.100;2022-09-12T10:32:02;98964.31;;;23.41
70969;BMP280;58630;43.022;25.100;2022-09-12T10:34:38;98966.25;;;23.44
70969;BMP280;58630;43.022;25.100;2022-09-12T10:37:07;98966.69;;;23.46
70969;BMP280;58630;43.022;25.100;2022-09-12T10:39:34;98975.41;;;23.47
70969;BMP280;58630;43.022;25.100;2022-09-12T10:42:00;98968.19;;;23.47
70969;BMP280;58630;43.022;25.100;2022-09-12T10:44:27;98973.19;;;23.49
70969;BMP280;58630;43.022;25.100;2022-09-12T10:46:54;98964.09;;;23.50
70969;BMP280;58630;43.022;25.100;2022-09-12T10:51:45;98950.94;;;23.57
70969;BMP280;58630;43.022;25.100;2022-09-12T10:54:11;98952.94;;;23.63
70969;BMP280;58630;43.022;25.100;2022-09-12T10:56:46;98976.00;;;23.63
70969;BMP280;58630;43.022;25.100;2022-09-12T11:04:59;98953.47;;;23.76
70969;BMP280;58630;43.022;25.100;2022-09-12T11:07:34;98957.69;;;23.80
70969;BMP280;58630;43.022;25.100;2022-09-12T11:10:04;98955.06;;;23.83
70969;BMP280;58630;43.022;25.100;2022-09-12T11:33:45;98942.78;;;23.98
70969;BMP280;58630;43.022;25.100;2022-09-12T11:36:17;98946.19;;;23.98
70969;BMP280;58630;43.022;25.100;2022-09-12T11:38:51;98933.34;;;24.04
70969;BMP280;58630;43.022;25.100;2022-09-12T11:41:29;98924.44;;;24.19
70969;BMP280;58630;43.022;25.100;2022-09-12T11:43:57;98925.34;;;24.33
70969;BMP280;58630;43.022;25.100;2022-09-12T11:46:38;98957.28;;;24.40
70969;BMP280;58630;43.022;25.100;2022-09-12T11:51:36;98936.69;;;24.30
70969;BMP280;58630;43.022;25.100;2022-09-12T11:54:05;98930.75;;;24.43
70969;BMP280;58630;43.022;25.100;2022-09-12T11:56:37;98920.97;;;24.51
70969;BMP280;58630;43.022;25.100;2022-09-12T11:59:08;98920.41;;;24.71
70969;BMP280;58630;43.022;25.100;2022-09-12T12:01:37;98925.16;;;24.91
70969;BMP280;58630;43.022;25.100;2022-09-12T12:04:05;98922.25;;;25.10
70969;BMP280;58630;43.022;25.100;2022-09-12T12:09:23;98909.69;;;25.64
70969;BMP280;58630;43.022;25.100;2022-09-12T12:11:52;98915.06;;;25.81
70969;BMP280;58630;43.022;25.100;2022-09-12T12:14:21;98915.09;;;25.88
70969;BMP280;58630;43.022;25.100;2022-09-12T12:16:48;98911.34;;;26.03
70969;BMP280;58630;43.022;25.100;2022-09-12T12:21:43;98923.81;;;25.85
70969;BMP280;58630;43.022;25.100;2022-09-12T12:29:02;98917.53;;;25.40
70969;BMP280;58630;43.022;25.100;2022-09-12T12:31:27;98934.53;;;25.28
70969;BMP280;58630;43.022;25.100;2022-09-12T12:33:54;98920.06;;;25.19
70969;BMP280;58630;43.022;25.100;2022-09-12T12:36:38;98925.69;;;25.11
70969;BMP280;58630;43.022;25.100;2022-09-12T12:41:48;98908.16;;;24.99
70969;BMP280;58630;43.022;25.100;2022-09-12T12:47:07;98901.22;;;25.45
70969;BMP280;58630;43.022;25.100;2022-09-12T12:49:32;98902.28;;;26.32
70969;BMP280;58630;43.022;25.100;2022-09-12T12:51:58;98901.13;;;27.06
70969;BMP280;58630;43.022;25.100;2022-09-12T12:59:43;98903.63;;;28.29
70969;BMP280;58630;43.022;25.100;2022-09-12T13:05:02;98907.78;;;27.72
70969;BMP280;58630;43.022;25.100;2022-09-12T13:07:31;98893.81;;;27.48
70969;BMP280;58630;43.022;25.100;2022-09-12T13:09:57;98906.22;;;27.78
70969;BMP280;58630;43.022;25.100;2022-09-12T13:12:24;98904.06;;;28.27
70969;BMP280;58630;43.022;25.100;2022-09-12T13:14:51;98890.50;;;28.48
70969;BMP280;58630;43.022;25.100;2022-09-12T13:19:50;98889.50;;;28.35
70969;BMP280;58630;43.022;25.100;2022-09-12T13:22:16;98878.34;;;28.43
70969;BMP280;58630;43.022;25.100;2022-09-12T13:24:46;98897.28;;;28.09
70969;BMP280;58630;43.022;25.100;2022-09-12T13:27:16;98900.53;;;27.76
70969;BMP280;58630;43.022;25.100;2022-09-12T13:29:42;98897.59;;;27.50
70969;BMP280;58630;43.022;25.100;2022-09-12T13:32:07;98890.41;;;27.33
70969;BMP280;58630;43.022;25.100;2022-09-12T13:34:34;98899.97;;;27.17
70969;BMP280;58630;43.022;25.100;2022-09-12T13:39:48;98894.44;;;27.72
70969;BMP280;58630;43.022;25.100;2022-09-12T13:44:58;98912.78;;;27.67
70969;BMP280;58630;43.022;25.100;2022-09-12T13:47:34;98911.31;;;27.42
70969;BMP280;58630;43.022;25.100;2022-09-12T13:50:01;98905.69;;;27.19
70969;BMP280;58630;43.022;25.100;2022-09-12T13:52:28;98903.06;;;26.91
70969;BMP280;58630;43.022;25.100;2022-09-12T13:54:55;98905.34;;;26.96
70969;BMP280;58630;43.022;25.100;2022-09-12T13:59:57;98895.22;;;27.69
70969;BMP280;58630;43.022;25.100;2022-09-12T14:02:24;98900.41;;;27.97
70969;BMP280;58630;43.022;25.100;2022-09-12T14:04:51;98897.94;;;28.30
70969;BMP280;58630;43.022;25.100;2022-09-12T14:07:36;98908.06;;;28.52
70969;BMP280;58630;43.022;25.100;2022-09-12T14:10:03;98901.38;;;28.71
70969;BMP280;58630;43.022;25.100;2022-09-12T14:12:30;98902.91;;;28.72
70969;BMP280;58630;43.022;25.100;2022-09-12T14:14:57;98903.06;;;28.54
70969;BMP280;58630;43.022;25.100;2022-09-12T14:17:23;98906.19;;;28.42
70969;BMP280;58630;43.022;25.100;2022-09-12T14:19:51;98892.53;;;28.34
70969;BMP280;58630;43.022;25.100;2022-09-12T14:22:23;98892.66;;;28.63
70969;BMP280;58630;43.022;25.100;2022-09-12T14:24:50;98892.03;;;28.92
70969;BMP280;58630;43.022;25.100;2022-09-12T14:27:16;98882.00;;;29.00
70969;BMP280;58630;43.022;25.100;2022-09-12T14:29:43;98891.94;;;28.99
70969;BMP280;58630;43.022;25.100;2022-09-12T14:32:12;98897.69;;;28.98
70969;BMP280;58630;43.022;25.100;2022-09-12T14:34:39;98907.56;;;28.64
70969;BMP280;58630;43.022;25.100;2022-09-12T14:37:04;98907.78;;;28.37
70969;BMP280;58630;43.022;25.100;2022-09-12T14:39:31;98910.56;;;28.23
70969;BMP280;58630;43.022;25.100;2022-09-12T14:42:17;98907.91;;;28.23
70969;BMP280;58630;43.022;25.100;2022-09-12T14:44:51;98913.53;;;28.32
70969;BMP280;58630;43.022;25.100;2022-09-12T14:47:22;98911.19;;;28.41
70969;BMP280;58630;43.022;25.100;2022-09-12T14:49:48;98898.50;;;28.51
70969;BMP280;58630;43.022;25.100;2022-09-12T14:57:35;98908.56;;;28.81
70969;BMP280;58630;43.022;25.100;2022-09-12T15:02:40;98918.34;;;28.94
70969;BMP280;58630;43.022;25.100;2022-09-12T15:10:20;98920.53;;;29.06
70969;BMP280;58630;43.022;25.100;2022-09-12T15:12:49;98916.91;;;29.23
70969;BMP280;58630;43.022;25.100;2022-09-12T15:15:19;98919.22;;;29.24
70969;BMP280;58630;43.022;25.100;2022-09-12T15:17:44;98913.06;;;29.24
70969;BMP280;58630;43.022;25.100;2022-09-12T15:20:10;98912.28;;;29.27
70969;BMP280;58630;43.022;25.100;2022-09-12T15:22:36;98910.44;;;29.20
70969;BMP280;58630;43.022;25.100;2022-09-12T15:25:02;98906.97;;;29.23
70969;BMP280;58630;43.022;25.100;2022-09-12T15:27:28;98911.97;;;29.21
70969;BMP280;58630;43.022;25.100;2022-09-12T15:29:53;98909.78;;;29.13
70969;BMP280;58630;43.022;25.100;2022-09-12T15:32:22;98907.81;;;29.17
70969;BMP280;58630;43.022;25.100;2022-09-12T15:34:48;98931.72;;;28.97
70969;BMP280;58630;43.022;25.100;2022-09-12T15:37:13;98910.44;;;28.87
70969;BMP280;58630;43.022;25.100;2022-09-12T15:39:38;98915.91;;;28.73
70969;BMP280;58630;43.022;25.100;2022-09-12T15:42:04;98917.50;;;28.60
70969;BMP280;58630;43.022;25.100;2022-09-12T15:44:29;98918.41;;;28.47
70969;BMP280;58630;43.022;25.100;2022-09-12T15:46:55;98918.00;;;28.45
70969;BMP280;58630;43.022;25.100;2022-09-12T15:49:20;98922.34;;;28.32
70969;BMP280;58630;43.022;25.100;2022-09-12T15:51:45;98927.69;;;28.29
70969;BMP280;58630;43.022;25.100;2022-09-12T15:54:11;98930.81;;;28.24
70969;BMP280;58630;43.022;25.100;2022-09-12T15:56:38;98927.41;;;28.13
70969;BMP280;58630;43.022;25.100;2022-09-12T15:59:03;98929.72;;;28.11
70969;BMP280;58630;43.022;25.100;2022-09-12T16:01:29;98919.47;;;28.02
70969;BMP280;58630;43.022;25.100;2022-09-12T16:03:54;98927.13;;;28.00
70969;BMP280;58630;43.022;25.100;2022-09-12T16:06:20;98919.88;;;27.98
70969;BMP280;58630;43.022;25.100;2022-09-12T16:08:46;98927.13;;;27.97
70969;BMP280;58630;43.022;25.100;2022-09-12T16:11:22;98920.63;;;27.98
70969;BMP280;58630;43.022;25.100;2022-09-12T16:13:47;98929.44;;;27.92
70969;BMP280;58630;43.022;25.100;2022-09-12T16:16:13;98928.34;;;27.89
70969;BMP280;58630;43.022;25.100;2022-09-12T16:18:39;98937.47;;;27.85
70969;BMP280;58630;43.022;25.100;2022-09-12T16:21:04;98930.66;;;27.80
70969;BMP280;58630;43.022;25.100;2022-09-12T16:23:30;98930.25;;;27.78
70969;BMP280;58630;43.022;25.100;2022-09-12T16:25:58;98929.56;;;27.71
70969;BMP280;58630;43.022;25.100;2022-09-12T16:28:24;98928.44;;;27.65
70969;BMP280;58630;43.022;25.100;2022-09-12T16:33:21;98920.44;;;27.54
70969;BMP280;58630;43.022;25.100;2022-09-12T16:35:46;98937.22;;;27.52
70969;BMP280;58630;43.022;25.100;2022-09-12T16:38:12;98940.31;;;27.47
70969;BMP280;58630;43.022;25.100;2022-09-12T16:40:37;98942.59;;;27.45
70969;BMP280;58630;43.022;25.100;2022-09-12T16:43:02;98941.84;;;27.37